Hauptseite
METAR-TAF:

METAR-TAF

Flughäfen :

Heeresflugplatz Celle

Celle, Deutschland

Breite: 52-36N, Länge: 010-01E, Höhe: 39 m

Beobachtung

Neuester Wetterbericht von vor 19 Minuten, um 07:20 UTC
Wind 3 kt aus Ost
Temperatur 22°C
Luftfeuchtigkeit 53%
Luftdruck 1024 hPa
Sichtweite 10 km oder mehr
Aufgelockert bewölkt in der Höhe von 35000 ft

METAR: ETHC 110720Z 08003KT 9999 SCT350 22/12 Q1024 BLU+BLU+

Zeit: 09:39 (07:39 UTC)

Prognose

Neuester Wetterbericht von vor 3 Stunden und 10 Minuten, um 04:29 UTC
Gültige Prognose vom 11 um 05 UTC bis 11 um 14 UTC
Wind 7 kt aus Ost
Sichtweite 10 km oder mehr
Leicht bewölkt in der Höhe von 35000 ft

TAF: ETHC 110429Z 1105/1114 08007KT 9999 NSW FEW350

Wetterbeobachtungen und Prognosen von mehr als 4000 Flughäfen (METAR und TAF Bericht).

Die verfügbaren Stationen werden durch gelbe und rote Markierungen auf der Karte dargestellt.

Führen Sie die Maus auf sie, um den Namen der Station zu sehen.

Darauf klicken, um die Beobachtung von Wetterbeobachtungen und Prognosen zu sehen.

Um die Karte zu ändern : klicken Sie auf den grünen Tasten mit einem schwarzen Kreuz Zum Vergrößern, auf den grünen Button mit einem Gedankenstrich zu verkleinern, oder auf die grünen Pfeile für benachbarte Karten.


METAR-TAF: